Corrida de Cori, Argentina
Current Conditions -  °F | °C
As of 10:00 AM on Monday 22 Dec 2014 (Local Time) from SCFA Reporting Station
Few Clouds Few Clouds  
Wind Chill: 64°   Ceiling: Unl
Heat Index: 64°   Visibility: 6mi
Dew Point: 54°   Wind: 6mph
Humidity: 68%   Direction: 210°SSW
Pressure: 29.97"   Gusts: NA
Location:  25.1°S, 68.33°W
Report Text: SCFA 221300Z 21005KT 9999 FEW017 18/12 Q1015 NOSIG
Loading
Personal Weather Stations






























Interactive Weather Map New forecast layout! Learn more

10-Day Weather Forecast

Advertisements
Track Severe Weather on mobile